Chesterfield Inlet, Canada
Current Conditions -  °F | °C
As of 12:00 PM on Wednesday 26 Nov 2014 (Local Time) from CYCS Reporting Station
Blowing Snow Blowing Snow  
Wind Chill: -33°   Ceiling: 2000
Heat Index: -8°   Visibility: 8mi
Dew Point: -15°   Wind: 23mph
Humidity: 71%   Direction: 270°W
Pressure: 29.84"   Gusts: NA
Location:  63.33°N, 90.7°W
Report Text: CYCS 261800Z 27020KT 8SM DRSN BKN020 OVC050 M22/M26 A2984 RMK SC6SC2 SLP105
Loading
Personal Weather Stations






























Interactive Weather Map New forecast layout! Learn more

10-Day Weather Forecast

Advertisements
Track Severe Weather on mobile